sensor_id;sensor_type;location;lat;lon;timestamp;P1;durP1;ratioP1;P2;durP2;ratioP2
9524;SDS011;15940;48.734;9.112;2023-04-24T00:01:36;2.50;;;1.03;;
9524;SDS011;15940;48.734;9.112;2023-04-24T00:04:04;0.90;;;0.90;;
9524;SDS011;15940;48.734;9.112;2023-04-24T00:06:32;1.17;;;1.13;;
9524;SDS011;15940;48.734;9.112;2023-04-24T00:08:59;1.57;;;1.20;;
9524;SDS011;15940;48.734;9.112;2023-04-24T00:11:26;1.47;;;1.00;;
9524;SDS011;15940;48.734;9.112;2023-04-24T00:13:53;0.90;;;0.90;;
9524;SDS011;15940;48.734;9.112;2023-04-24T00:16:21;0.90;;;0.90;;
9524;SDS011;15940;48.734;9.112;2023-04-24T00:18:48;3.23;;;0.90;;
9524;SDS011;15940;48.734;9.112;2023-04-24T00:21:17;1.03;;;0.90;;
9524;SDS011;15940;48.734;9.112;2023-04-24T00:23:44;1.20;;;0.90;;
9524;SDS011;15940;48.734;9.112;2023-04-24T00:26:11;2.10;;;0.97;;
9524;SDS011;15940;48.734;9.112;2023-04-24T00:28:38;1.90;;;1.03;;
9524;SDS011;15940;48.734;9.112;2023-04-24T00:31:05;1.07;;;1.00;;
9524;SDS011;15940;48.734;9.112;2023-04-24T00:33:33;1.07;;;0.97;;
9524;SDS011;15940;48.734;9.112;2023-04-24T00:36:00;1.77;;;0.90;;
9524;SDS011;15940;48.734;9.112;2023-04-24T00:38:27;2.63;;;0.93;;
9524;SDS011;15940;48.734;9.112;2023-04-24T00:40:54;0.97;;;0.90;;
9524;SDS011;15940;48.734;9.112;2023-04-24T00:43:21;0.87;;;0.87;;
9524;SDS011;15940;48.734;9.112;2023-04-24T00:45:48;2.23;;;0.90;;
9524;SDS011;15940;48.734;9.112;2023-04-24T00:48:15;3.93;;;1.10;;
9524;SDS011;15940;48.734;9.112;2023-04-24T00:50:44;1.00;;;0.90;;
9524;SDS011;15940;48.734;9.112;2023-04-24T00:53:11;1.40;;;0.87;;
9524;SDS011;15940;48.734;9.112;2023-04-24T00:55:38;1.33;;;0.97;;
9524;SDS011;15940;48.734;9.112;2023-04-24T00:58:05;1.00;;;1.00;;
9524;SDS011;15940;48.734;9.112;2023-04-24T01:00:32;1.77;;;0.67;;
9524;SDS011;15940;48.734;9.112;2023-04-24T01:03:00;0.83;;;0.83;;
9524;SDS011;15940;48.734;9.112;2023-04-24T01:05:30;2.27;;;0.90;;
9524;SDS011;15940;48.734;9.112;2023-04-24T01:08:00;0.90;;;0.90;;
9524;SDS011;15940;48.734;9.112;2023-04-24T01:10:28;0.80;;;0.80;;
9524;SDS011;15940;48.734;9.112;2023-04-24T01:12:57;1.33;;;1.10;;
9524;SDS011;15940;48.734;9.112;2023-04-24T01:15:24;1.47;;;1.13;;
9524;SDS011;15940;48.734;9.112;2023-04-24T01:17:51;1.80;;;1.00;;
9524;SDS011;15940;48.734;9.112;2023-04-24T01:20:18;3.27;;;0.87;;
9524;SDS011;15940;48.734;9.112;2023-04-24T01:22:47;1.17;;;0.90;;
9524;SDS011;15940;48.734;9.112;2023-04-24T01:25:14;1.03;;;0.90;;
9524;SDS011;15940;48.734;9.112;2023-04-24T01:27:41;0.83;;;0.80;;
9524;SDS011;15940;48.734;9.112;2023-04-24T01:30:08;1.57;;;1.00;;
9524;SDS011;15940;48.734;9.112;2023-04-24T01:32:37;2.03;;;1.20;;
9524;SDS011;15940;48.734;9.112;2023-04-24T01:35:05;1.00;;;0.80;;
9524;SDS011;15940;48.734;9.112;2023-04-24T01:37:33;2.77;;;1.00;;
9524;SDS011;15940;48.734;9.112;2023-04-24T01:40:03;2.30;;;1.17;;
9524;SDS011;15940;48.734;9.112;2023-04-24T01:42:32;2.57;;;0.87;;
9524;SDS011;15940;48.734;9.112;2023-04-24T01:45:00;1.53;;;0.70;;
9524;SDS011;15940;48.734;9.112;2023-04-24T01:47:30;4.37;;;1.27;;
9524;SDS011;15940;48.734;9.112;2023-04-24T01:49:58;1.00;;;0.90;;
9524;SDS011;15940;48.734;9.112;2023-04-24T01:52:25;1.53;;;1.10;;
9524;SDS011;15940;48.734;9.112;2023-04-24T01:54:53;1.00;;;1.00;;
9524;SDS011;15940;48.734;9.112;2023-04-24T01:57:22;1.63;;;0.90;;
9524;SDS011;15940;48.734;9.112;2023-04-24T01:59:49;3.90;;;1.30;;
9524;SDS011;15940;48.734;9.112;2023-04-24T02:02:17;1.33;;;0.90;;
9524;SDS011;15940;48.734;9.112;2023-04-24T02:04:46;1.60;;;1.00;;
9524;SDS011;15940;48.734;9.112;2023-04-24T02:07:13;2.10;;;1.10;;
9524;SDS011;15940;48.734;9.112;2023-04-24T02:09:39;1.30;;;1.00;;
9524;SDS011;15940;48.734;9.112;2023-04-24T02:12:06;3.03;;;0.90;;
9524;SDS011;15940;48.734;9.112;2023-04-24T02:14:35;1.23;;;1.07;;
9524;SDS011;15940;48.734;9.112;2023-04-24T02:17:01;1.70;;;0.90;;
9524;SDS011;15940;48.734;9.112;2023-04-24T02:19:29;1.13;;;1.10;;
9524;SDS011;15940;48.734;9.112;2023-04-24T02:21:56;0.83;;;0.83;;
9524;SDS011;15940;48.734;9.112;2023-04-24T02:24:23;1.23;;;1.03;;
9524;SDS011;15940;48.734;9.112;2023-04-24T02:26:50;1.20;;;1.07;;
9524;SDS011;15940;48.734;9.112;2023-04-24T02:29:17;1.20;;;0.93;;
9524;SDS011;15940;48.734;9.112;2023-04-24T02:31:45;1.53;;;0.80;;
9524;SDS011;15940;48.734;9.112;2023-04-24T02:34:12;1.27;;;1.00;;
9524;SDS011;15940;48.734;9.112;2023-04-24T02:36:39;1.07;;;0.93;;
9524;SDS011;15940;48.734;9.112;2023-04-24T02:39:06;0.90;;;0.90;;
9524;SDS011;15940;48.734;9.112;2023-04-24T02:41:33;0.90;;;0.90;;
9524;SDS011;15940;48.734;9.112;2023-04-24T02:44:00;1.60;;;1.20;;
9524;SDS011;15940;48.734;9.112;2023-04-24T02:46:27;1.00;;;1.00;;
9524;SDS011;15940;48.734;9.112;2023-04-24T02:48:55;1.23;;;1.13;;
9524;SDS011;15940;48.734;9.112;2023-04-24T02:51:22;1.70;;;1.27;;
9524;SDS011;15940;48.734;9.112;2023-04-24T02:53:49;1.93;;;1.20;;
9524;SDS011;15940;48.734;9.112;2023-04-24T02:56:16;1.10;;;1.00;;
9524;SDS011;15940;48.734;9.112;2023-04-24T02:58:43;1.97;;;1.00;;
9524;SDS011;15940;48.734;9.112;2023-04-24T03:01:09;2.20;;;1.00;;
9524;SDS011;15940;48.734;9.112;2023-04-24T03:03:37;1.83;;;1.10;;
9524;SDS011;15940;48.734;9.112;2023-04-24T03:06:06;1.00;;;0.93;;
9524;SDS011;15940;48.734;9.112;2023-04-24T03:08:33;2.50;;;1.10;;
9524;SDS011;15940;48.734;9.112;2023-04-24T03:11:00;2.20;;;1.20;;
9524;SDS011;15940;48.734;9.112;2023-04-24T03:13:27;1.43;;;1.20;;
9524;SDS011;15940;48.734;9.112;2023-04-24T03:15:54;1.67;;;1.20;;
9524;SDS011;15940;48.734;9.112;2023-04-24T03:18:21;1.70;;;1.60;;
9524;SDS011;15940;48.734;9.112;2023-04-24T03:20:48;3.37;;;1.53;;
9524;SDS011;15940;48.734;9.112;2023-04-24T03:23:16;1.50;;;1.30;;
9524;SDS011;15940;48.734;9.112;2023-04-24T03:25:43;2.57;;;1.13;;
9524;SDS011;15940;48.734;9.112;2023-04-24T03:28:10;0.97;;;0.97;;
9524;SDS011;15940;48.734;9.112;2023-04-24T03:30:37;2.23;;;1.07;;
9524;SDS011;15940;48.734;9.112;2023-04-24T03:33:04;3.97;;;1.77;;
9524;SDS011;15940;48.734;9.112;2023-04-24T03:35:31;0.90;;;0.90;;
9524;SDS011;15940;48.734;9.112;2023-04-24T03:37:58;3.90;;;1.40;;
9524;SDS011;15940;48.734;9.112;2023-04-24T03:40:26;1.20;;;1.10;;
9524;SDS011;15940;48.734;9.112;2023-04-24T03:42:54;1.10;;;1.10;;
9524;SDS011;15940;48.734;9.112;2023-04-24T03:45:21;1.30;;;1.20;;
9524;SDS011;15940;48.734;9.112;2023-04-24T03:47:49;4.93;;;1.20;;
9524;SDS011;15940;48.734;9.112;2023-04-24T03:50:16;1.13;;;0.90;;
9524;SDS011;15940;48.734;9.112;2023-04-24T03:52:42;1.53;;;1.10;;
9524;SDS011;15940;48.734;9.112;2023-04-24T03:55:09;1.10;;;1.00;;
9524;SDS011;15940;48.734;9.112;2023-04-24T03:57:39;1.20;;;1.10;;
9524;SDS011;15940;48.734;9.112;2023-04-24T04:00:06;1.87;;;1.10;;
9524;SDS011;15940;48.734;9.112;2023-04-24T04:02:34;2.33;;;1.00;;
9524;SDS011;15940;48.734;9.112;2023-04-24T04:05:01;3.13;;;1.10;;
9524;SDS011;15940;48.734;9.112;2023-04-24T04:07:28;2.17;;;1.23;;
9524;SDS011;15940;48.734;9.112;2023-04-24T04:09:55;2.83;;;1.20;;
9524;SDS011;15940;48.734;9.112;2023-04-24T04:12:22;1.20;;;0.80;;
9524;SDS011;15940;48.734;9.112;2023-04-24T04:14:50;1.53;;;0.90;;
9524;SDS011;15940;48.734;9.112;2023-04-24T04:17:17;4.23;;;1.10;;
9524;SDS011;15940;48.734;9.112;2023-04-24T04:19:44;1.77;;;1.20;;
9524;SDS011;15940;48.734;9.112;2023-04-24T04:22:11;2.77;;;1.10;;
9524;SDS011;15940;48.734;9.112;2023-04-24T04:24:38;1.23;;;0.90;;
9524;SDS011;15940;48.734;9.112;2023-04-24T04:27:05;1.57;;;0.93;;
9524;SDS011;15940;48.734;9.112;2023-04-24T04:29:33;2.93;;;1.30;;
9524;SDS011;15940;48.734;9.112;2023-04-24T04:32:02;3.07;;;1.60;;
9524;SDS011;15940;48.734;9.112;2023-04-24T04:34:28;1.83;;;1.20;;
9524;SDS011;15940;48.734;9.112;2023-04-24T04:36:56;1.27;;;1.17;;
9524;SDS011;15940;48.734;9.112;2023-04-24T04:39:26;1.73;;;1.60;;
9524;SDS011;15940;48.734;9.112;2023-04-24T04:41:54;2.07;;;1.60;;
9524;SDS011;15940;48.734;9.112;2023-04-24T04:44:21;1.50;;;1.50;;
9524;SDS011;15940;48.734;9.112;2023-04-24T04:46:49;1.60;;;1.50;;
9524;SDS011;15940;48.734;9.112;2023-04-24T04:49:19;2.83;;;1.90;;
9524;SDS011;15940;48.734;9.112;2023-04-24T04:51:46;2.10;;;1.90;;
9524;SDS011;15940;48.734;9.112;2023-04-24T04:54:13;2.50;;;2.30;;
9524;SDS011;15940;48.734;9.112;2023-04-24T04:56:41;3.77;;;2.43;;
9524;SDS011;15940;48.734;9.112;2023-04-24T04:59:08;4.57;;;2.87;;
9524;SDS011;15940;48.734;9.112;2023-04-24T05:01:36;2.90;;;2.37;;
9524;SDS011;15940;48.734;9.112;2023-04-24T05:04:03;2.47;;;2.10;;
9524;SDS011;15940;48.734;9.112;2023-04-24T05:06:31;3.33;;;2.40;;
9524;SDS011;15940;48.734;9.112;2023-04-24T05:08:58;2.17;;;1.97;;
9524;SDS011;15940;48.734;9.112;2023-04-24T05:11:25;3.10;;;2.20;;
9524;SDS011;15940;48.734;9.112;2023-04-24T05:13:51;3.60;;;2.10;;
9524;SDS011;15940;48.734;9.112;2023-04-24T05:16:18;2.23;;;1.87;;
9524;SDS011;15940;48.734;9.112;2023-04-24T05:18:45;2.30;;;1.97;;
9524;SDS011;15940;48.734;9.112;2023-04-24T05:21:12;2.10;;;1.60;;
9524;SDS011;15940;48.734;9.112;2023-04-24T05:23:40;1.60;;;1.50;;
9524;SDS011;15940;48.734;9.112;2023-04-24T05:26:07;1.70;;;1.60;;
9524;SDS011;15940;48.734;9.112;2023-04-24T05:28:35;2.43;;;2.03;;
9524;SDS011;15940;48.734;9.112;2023-04-24T05:31:02;3.07;;;2.00;;
9524;SDS011;15940;48.734;9.112;2023-04-24T05:33:29;3.50;;;2.00;;
9524;SDS011;15940;48.734;9.112;2023-04-24T05:35:56;2.63;;;1.90;;
9524;SDS011;15940;48.734;9.112;2023-04-24T05:38:23;2.40;;;2.20;;
9524;SDS011;15940;48.734;9.112;2023-04-24T05:40:51;4.57;;;2.20;;
9524;SDS011;15940;48.734;9.112;2023-04-24T05:43:18;5.47;;;2.33;;
9524;SDS011;15940;48.734;9.112;2023-04-24T05:45:45;3.10;;;2.80;;
9524;SDS011;15940;48.734;9.112;2023-04-24T05:48:12;2.97;;;2.77;;
9524;SDS011;15940;48.734;9.112;2023-04-24T05:50:39;3.43;;;3.13;;
9524;SDS011;15940;48.734;9.112;2023-04-24T05:53:06;3.17;;;2.20;;
9524;SDS011;15940;48.734;9.112;2023-04-24T05:55:35;3.27;;;2.80;;
9524;SDS011;15940;48.734;9.112;2023-04-24T05:58:04;3.70;;;2.80;;
9524;SDS011;15940;48.734;9.112;2023-04-24T06:00:31;2.63;;;2.00;;
9524;SDS011;15940;48.734;9.112;2023-04-24T06:02:59;2.60;;;2.20;;
9524;SDS011;15940;48.734;9.112;2023-04-24T06:05:27;3.47;;;2.17;;
9524;SDS011;15940;48.734;9.112;2023-04-24T06:07:54;2.37;;;2.10;;
9524;SDS011;15940;48.734;9.112;2023-04-24T06:10:21;3.50;;;2.40;;
9524;SDS011;15940;48.734;9.112;2023-04-24T06:12:48;3.47;;;2.20;;
9524;SDS011;15940;48.734;9.112;2023-04-24T06:15:17;2.20;;;2.10;;
9524;SDS011;15940;48.734;9.112;2023-04-24T06:17:44;2.57;;;2.37;;
9524;SDS011;15940;48.734;9.112;2023-04-24T06:20:12;2.23;;;2.00;;
9524;SDS011;15940;48.734;9.112;2023-04-24T06:22:39;2.60;;;2.17;;
9524;SDS011;15940;48.734;9.112;2023-04-24T06:25:07;2.83;;;2.27;;
9524;SDS011;15940;48.734;9.112;2023-04-24T06:27:34;2.67;;;2.30;;
9524;SDS011;15940;48.734;9.112;2023-04-24T06:30:01;2.50;;;2.17;;
9524;SDS011;15940;48.734;9.112;2023-04-24T06:32:30;2.50;;;2.30;;
9524;SDS011;15940;48.734;9.112;2023-04-24T06:34:56;3.70;;;2.10;;
9524;SDS011;15940;48.734;9.112;2023-04-24T06:37:24;2.60;;;2.40;;
9524;SDS011;15940;48.734;9.112;2023-04-24T06:39:50;3.00;;;1.90;;
9524;SDS011;15940;48.734;9.112;2023-04-24T06:42:17;3.80;;;2.10;;
9524;SDS011;15940;48.734;9.112;2023-04-24T06:44:45;2.07;;;1.90;;
9524;SDS011;15940;48.734;9.112;2023-04-24T06:47:12;2.43;;;2.20;;
9524;SDS011;15940;48.734;9.112;2023-04-24T06:49:41;4.37;;;2.07;;
9524;SDS011;15940;48.734;9.112;2023-04-24T06:52:08;3.60;;;2.43;;
9524;SDS011;15940;48.734;9.112;2023-04-24T06:54:35;2.10;;;2.00;;
9524;SDS011;15940;48.734;9.112;2023-04-24T06:57:02;4.43;;;2.30;;
9524;SDS011;15940;48.734;9.112;2023-04-24T06:59:29;2.83;;;2.00;;
9524;SDS011;15940;48.734;9.112;2023-04-24T07:01:56;2.17;;;1.97;;
9524;SDS011;15940;48.734;9.112;2023-04-24T07:04:23;2.40;;;2.00;;
9524;SDS011;15940;48.734;9.112;2023-04-24T07:06:51;2.83;;;1.87;;
9524;SDS011;15940;48.734;9.112;2023-04-24T07:09:20;1.90;;;1.80;;
9524;SDS011;15940;48.734;9.112;2023-04-24T07:11:48;2.13;;;1.93;;
9524;SDS011;15940;48.734;9.112;2023-04-24T07:14:16;1.80;;;1.70;;
9524;SDS011;15940;48.734;9.112;2023-04-24T07:16:43;2.50;;;1.60;;
9524;SDS011;15940;48.734;9.112;2023-04-24T07:19:10;2.07;;;1.87;;
9524;SDS011;15940;48.734;9.112;2023-04-24T07:21:37;1.80;;;1.70;;
9524;SDS011;15940;48.734;9.112;2023-04-24T07:24:05;1.63;;;1.53;;
9524;SDS011;15940;48.734;9.112;2023-04-24T07:26:35;2.10;;;1.90;;
9524;SDS011;15940;48.734;9.112;2023-04-24T07:29:03;1.77;;;1.67;;
9524;SDS011;15940;48.734;9.112;2023-04-24T07:31:30;1.80;;;1.70;;
9524;SDS011;15940;48.734;9.112;2023-04-24T07:33:57;1.70;;;1.60;;
9524;SDS011;15940;48.734;9.112;2023-04-24T07:36:23;1.87;;;1.77;;
9524;SDS011;15940;48.734;9.112;2023-04-24T07:38:51;1.70;;;1.60;;
9524;SDS011;15940;48.734;9.112;2023-04-24T07:41:19;1.20;;;1.10;;
9524;SDS011;15940;48.734;9.112;2023-04-24T07:43:46;2.67;;;1.90;;
9524;SDS011;15940;48.734;9.112;2023-04-24T07:46:13;1.67;;;1.57;;
9524;SDS011;15940;48.734;9.112;2023-04-24T07:48:40;1.60;;;1.50;;
9524;SDS011;15940;48.734;9.112;2023-04-24T07:51:07;2.57;;;1.33;;
9524;SDS011;15940;48.734;9.112;2023-04-24T07:53:35;2.30;;;1.70;;
9524;SDS011;15940;48.734;9.112;2023-04-24T07:56:02;2.33;;;1.50;;
9524;SDS011;15940;48.734;9.112;2023-04-24T07:58:30;1.30;;;1.30;;
9524;SDS011;15940;48.734;9.112;2023-04-24T08:00:57;2.03;;;1.60;;
9524;SDS011;15940;48.734;9.112;2023-04-24T08:03:24;1.30;;;1.20;;
9524;SDS011;15940;48.734;9.112;2023-04-24T08:05:51;2.10;;;1.43;;
9524;SDS011;15940;48.734;9.112;2023-04-24T08:08:19;1.40;;;1.30;;
9524;SDS011;15940;48.734;9.112;2023-04-24T08:10:47;1.70;;;1.50;;
9524;SDS011;15940;48.734;9.112;2023-04-24T08:13:14;1.50;;;1.40;;
9524;SDS011;15940;48.734;9.112;2023-04-24T08:15:43;1.30;;;1.30;;
9524;SDS011;15940;48.734;9.112;2023-04-24T08:18:10;1.83;;;1.40;;
9524;SDS011;15940;48.734;9.112;2023-04-24T08:20:38;1.67;;;1.20;;
9524;SDS011;15940;48.734;9.112;2023-04-24T08:23:05;3.30;;;1.37;;
9524;SDS011;15940;48.734;9.112;2023-04-24T08:25:32;2.33;;;1.30;;
9524;SDS011;15940;48.734;9.112;2023-04-24T08:28:00;2.17;;;1.30;;
9524;SDS011;15940;48.734;9.112;2023-04-24T08:30:29;3.40;;;1.40;;
9524;SDS011;15940;48.734;9.112;2023-04-24T08:32:57;2.00;;;1.57;;
9524;SDS011;15940;48.734;9.112;2023-04-24T08:35:24;1.40;;;1.30;;
9524;SDS011;15940;48.734;9.112;2023-04-24T08:37:51;1.40;;;1.20;;
9524;SDS011;15940;48.734;9.112;2023-04-24T08:40:18;4.57;;;1.47;;
9524;SDS011;15940;48.734;9.112;2023-04-24T08:42:54;1.97;;;1.50;;
9524;SDS011;15940;48.734;9.112;2023-04-24T08:45:23;2.87;;;1.60;;
9524;SDS011;15940;48.734;9.112;2023-04-24T08:47:52;1.67;;;1.57;;
9524;SDS011;15940;48.734;9.112;2023-04-24T08:50:21;1.60;;;1.50;;
9524;SDS011;15940;48.734;9.112;2023-04-24T08:52:49;1.97;;;1.47;;
9524;SDS011;15940;48.734;9.112;2023-04-24T08:55:18;2.03;;;1.60;;
9524;SDS011;15940;48.734;9.112;2023-04-24T08:57:49;1.30;;;1.20;;
9524;SDS011;15940;48.734;9.112;2023-04-24T09:00:18;2.13;;;1.30;;
9524;SDS011;15940;48.734;9.112;2023-04-24T09:02:47;1.87;;;1.40;;
9524;SDS011;15940;48.734;9.112;2023-04-24T09:05:16;2.27;;;1.40;;
9524;SDS011;15940;48.734;9.112;2023-04-24T09:07:46;2.07;;;1.50;;
9524;SDS011;15940;48.734;9.112;2023-04-24T09:10:19;1.87;;;1.57;;
9524;SDS011;15940;48.734;9.112;2023-04-24T09:12:48;3.73;;;1.53;;
9524;SDS011;15940;48.734;9.112;2023-04-24T09:15:17;1.60;;;1.50;;
9524;SDS011;15940;48.734;9.112;2023-04-24T09:17:45;3.83;;;1.60;;
9524;SDS011;15940;48.734;9.112;2023-04-24T09:20:12;1.60;;;1.50;;
9524;SDS011;15940;48.734;9.112;2023-04-24T09:22:39;1.50;;;1.40;;
9524;SDS011;15940;48.734;9.112;2023-04-24T09:25:09;2.10;;;1.40;;
9524;SDS011;15940;48.734;9.112;2023-04-24T09:29:57;2.03;;;1.50;;
9524;SDS011;15940;48.734;9.112;2023-04-24T09:32:25;1.40;;;1.30;;
9524;SDS011;15940;48.734;9.112;2023-04-24T09:35:09;2.73;;;1.20;;
9524;SDS011;15940;48.734;9.112;2023-04-24T09:37:38;1.37;;;1.20;;
9524;SDS011;15940;48.734;9.112;2023-04-24T09:40:12;1.23;;;1.13;;
9524;SDS011;15940;48.734;9.112;2023-04-24T09:42:45;2.17;;;1.10;;
9524;SDS011;15940;48.734;9.112;2023-04-24T09:45:18;5.63;;;1.27;;
9524;SDS011;15940;48.734;9.112;2023-04-24T09:47:46;2.10;;;1.40;;
9524;SDS011;15940;48.734;9.112;2023-04-24T09:50:17;1.40;;;1.30;;
9524;SDS011;15940;48.734;9.112;2023-04-24T09:52:44;1.43;;;1.07;;
9524;SDS011;15940;48.734;9.112;2023-04-24T09:55:14;1.53;;;1.00;;
9524;SDS011;15940;48.734;9.112;2023-04-24T09:57:49;1.80;;;1.00;;
9524;SDS011;15940;48.734;9.112;2023-04-24T10:00:20;1.10;;;1.10;;
9524;SDS011;15940;48.734;9.112;2023-04-24T10:02:55;1.57;;;1.20;;
9524;SDS011;15940;48.734;9.112;2023-04-24T10:05:24;0.80;;;0.80;;
9524;SDS011;15940;48.734;9.112;2023-04-24T10:07:58;1.07;;;1.03;;
9524;SDS011;15940;48.734;9.112;2023-04-24T10:10:29;1.17;;;1.07;;
9524;SDS011;15940;48.734;9.112;2023-04-24T10:12:56;1.20;;;1.10;;
9524;SDS011;15940;48.734;9.112;2023-04-24T10:15:25;2.40;;;1.30;;
9524;SDS011;15940;48.734;9.112;2023-04-24T10:17:52;1.10;;;1.10;;
9524;SDS011;15940;48.734;9.112;2023-04-24T10:20:20;1.60;;;1.10;;
9524;SDS011;15940;48.734;9.112;2023-04-24T10:22:50;1.23;;;1.10;;
9524;SDS011;15940;48.734;9.112;2023-04-24T10:25:19;1.27;;;1.17;;
9524;SDS011;15940;48.734;9.112;2023-04-24T10:27:48;1.37;;;1.10;;
9524;SDS011;15940;48.734;9.112;2023-04-24T10:30:16;0.90;;;0.90;;
9524;SDS011;15940;48.734;9.112;2023-04-24T10:32:46;0.90;;;0.90;;
9524;SDS011;15940;48.734;9.112;2023-04-24T10:35:13;1.10;;;1.10;;
9524;SDS011;15940;48.734;9.112;2023-04-24T10:37:42;1.53;;;1.23;;
9524;SDS011;15940;48.734;9.112;2023-04-24T10:40:17;1.67;;;1.27;;
9524;SDS011;15940;48.734;9.112;2023-04-24T10:42:47;0.90;;;0.90;;
9524;SDS011;15940;48.734;9.112;2023-04-24T10:45:17;1.07;;;1.00;;
9524;SDS011;15940;48.734;9.112;2023-04-24T10:47:54;1.10;;;1.10;;
9524;SDS011;15940;48.734;9.112;2023-04-24T10:50:26;1.10;;;1.03;;
9524;SDS011;15940;48.734;9.112;2023-04-24T10:53:04;1.00;;;0.90;;
9524;SDS011;15940;48.734;9.112;2023-04-24T10:55:40;1.10;;;1.10;;
9524;SDS011;15940;48.734;9.112;2023-04-24T10:58:09;1.47;;;1.20;;
9524;SDS011;15940;48.734;9.112;2023-04-24T11:00:37;1.67;;;1.10;;
9524;SDS011;15940;48.734;9.112;2023-04-24T11:03:12;0.90;;;0.90;;
9524;SDS011;15940;48.734;9.112;2023-04-24T11:05:51;1.30;;;1.20;;
9524;SDS011;15940;48.734;9.112;2023-04-24T11:08:26;1.13;;;1.13;;
9524;SDS011;15940;48.734;9.112;2023-04-24T11:11:03;1.27;;;1.17;;
9524;SDS011;15940;48.734;9.112;2023-04-24T11:16:32;1.80;;;1.30;;
9524;SDS011;15940;48.734;9.112;2023-04-24T11:19:05;1.17;;;1.10;;
9524;SDS011;15940;48.734;9.112;2023-04-24T11:21:42;1.10;;;1.00;;
9524;SDS011;15940;48.734;9.112;2023-04-24T11:24:23;1.10;;;1.10;;
9524;SDS011;15940;48.734;9.112;2023-04-24T11:26:53;3.03;;;1.33;;
9524;SDS011;15940;48.734;9.112;2023-04-24T11:29:22;1.57;;;1.20;;
9524;SDS011;15940;48.734;9.112;2023-04-24T11:32:14;1.60;;;1.50;;
9524;SDS011;15940;48.734;9.112;2023-04-24T11:34:52;1.37;;;1.30;;
9524;SDS011;15940;48.734;9.112;2023-04-24T11:37:21;0.97;;;0.97;;
9524;SDS011;15940;48.734;9.112;2023-04-24T11:39:53;0.90;;;0.90;;
9524;SDS011;15940;48.734;9.112;2023-04-24T11:42:21;1.23;;;1.13;;
9524;SDS011;15940;48.734;9.112;2023-04-24T11:44:51;1.10;;;0.97;;
9524;SDS011;15940;48.734;9.112;2023-04-24T11:47:20;1.30;;;1.20;;
9524;SDS011;15940;48.734;9.112;2023-04-24T11:49:56;1.10;;;1.10;;
9524;SDS011;15940;48.734;9.112;2023-04-24T11:52:24;2.30;;;1.20;;
9524;SDS011;15940;48.734;9.112;2023-04-24T11:54:51;2.40;;;1.70;;
9524;SDS011;15940;48.734;9.112;2023-04-24T11:57:19;1.40;;;1.13;;
9524;SDS011;15940;48.734;9.112;2023-04-24T11:59:47;1.40;;;1.30;;
9524;SDS011;15940;48.734;9.112;2023-04-24T12:02:21;1.40;;;1.30;;
9524;SDS011;15940;48.734;9.112;2023-04-24T12:04:49;1.10;;;1.10;;
9524;SDS011;15940;48.734;9.112;2023-04-24T12:07:18;1.73;;;1.40;;
9524;SDS011;15940;48.734;9.112;2023-04-24T12:09:46;1.33;;;1.23;;
9524;SDS011;15940;48.734;9.112;2023-04-24T12:12:17;1.10;;;1.07;;
9524;SDS011;15940;48.734;9.112;2023-04-24T12:14:44;2.20;;;1.30;;
9524;SDS011;15940;48.734;9.112;2023-04-24T12:17:14;1.40;;;1.30;;
9524;SDS011;15940;48.734;9.112;2023-04-24T12:19:46;1.60;;;1.30;;
9524;SDS011;15940;48.734;9.112;2023-04-24T12:22:18;1.50;;;1.40;;
9524;SDS011;15940;48.734;9.112;2023-04-24T12:24:55;1.30;;;1.30;;
9524;SDS011;15940;48.734;9.112;2023-04-24T12:27:24;1.57;;;1.30;;
9524;SDS011;15940;48.734;9.112;2023-04-24T12:29:52;1.47;;;1.20;;
9524;SDS011;15940;48.734;9.112;2023-04-24T12:32:19;1.80;;;1.70;;
9524;SDS011;15940;48.734;9.112;2023-04-24T12:34:46;1.50;;;1.40;;
9524;SDS011;15940;48.734;9.112;2023-04-24T12:37:15;1.80;;;1.43;;
9524;SDS011;15940;48.734;9.112;2023-04-24T12:39:48;1.57;;;1.30;;
9524;SDS011;15940;48.734;9.112;2023-04-24T12:42:30;1.40;;;1.20;;
9524;SDS011;15940;48.734;9.112;2023-04-24T12:44:58;1.50;;;1.40;;
9524;SDS011;15940;48.734;9.112;2023-04-24T12:47:29;1.10;;;1.10;;
9524;SDS011;15940;48.734;9.112;2023-04-24T12:49:57;1.23;;;1.10;;
9524;SDS011;15940;48.734;9.112;2023-04-24T12:52:24;1.20;;;1.20;;
9524;SDS011;15940;48.734;9.112;2023-04-24T12:54:54;1.10;;;1.10;;
9524;SDS011;15940;48.734;9.112;2023-04-24T12:57:22;2.20;;;1.03;;
9524;SDS011;15940;48.734;9.112;2023-04-24T12:59:50;1.23;;;1.17;;
9524;SDS011;15940;48.734;9.112;2023-04-24T13:02:19;1.00;;;1.00;;
9524;SDS011;15940;48.734;9.112;2023-04-24T13:04:47;1.17;;;1.17;;
9524;SDS011;15940;48.734;9.112;2023-04-24T13:07:14;1.50;;;1.40;;
9524;SDS011;15940;48.734;9.112;2023-04-24T13:09:42;2.77;;;1.30;;
9524;SDS011;15940;48.734;9.112;2023-04-24T13:12:11;2.67;;;1.60;;
9524;SDS011;15940;48.734;9.112;2023-04-24T13:14:39;4.17;;;1.77;;
9524;SDS011;15940;48.734;9.112;2023-04-24T13:17:05;1.83;;;1.60;;
9524;SDS011;15940;48.734;9.112;2023-04-24T13:19:35;3.40;;;1.47;;
9524;SDS011;15940;48.734;9.112;2023-04-24T13:22:03;1.67;;;1.57;;
9524;SDS011;15940;48.734;9.112;2023-04-24T13:24:31;1.53;;;1.43;;
9524;SDS011;15940;48.734;9.112;2023-04-24T13:26:58;1.47;;;1.40;;
9524;SDS011;15940;48.734;9.112;2023-04-24T13:29:27;1.20;;;1.20;;
9524;SDS011;15940;48.734;9.112;2023-04-24T13:31:54;1.63;;;1.53;;
9524;SDS011;15940;48.734;9.112;2023-04-24T13:34:21;2.17;;;1.60;;
9524;SDS011;15940;48.734;9.112;2023-04-24T13:36:49;1.43;;;1.33;;
9524;SDS011;15940;48.734;9.112;2023-04-24T13:39:16;3.03;;;1.40;;
9524;SDS011;15940;48.734;9.112;2023-04-24T13:41:43;1.93;;;1.63;;
9524;SDS011;15940;48.734;9.112;2023-04-24T13:44:12;2.83;;;1.90;;
9524;SDS011;15940;48.734;9.112;2023-04-24T13:46:41;2.37;;;1.47;;
9524;SDS011;15940;48.734;9.112;2023-04-24T13:49:10;1.20;;;1.20;;
9524;SDS011;15940;48.734;9.112;2023-04-24T13:51:37;1.70;;;1.60;;
9524;SDS011;15940;48.734;9.112;2023-04-24T13:54:05;1.40;;;1.30;;
9524;SDS011;15940;48.734;9.112;2023-04-24T13:56:32;1.50;;;1.40;;
9524;SDS011;15940;48.734;9.112;2023-04-24T14:01:26;1.70;;;1.60;;
9524;SDS011;15940;48.734;9.112;2023-04-24T14:03:53;1.80;;;1.70;;
9524;SDS011;15940;48.734;9.112;2023-04-24T14:06:21;1.83;;;1.73;;
9524;SDS011;15940;48.734;9.112;2023-04-24T14:08:49;2.13;;;1.90;;
9524;SDS011;15940;48.734;9.112;2023-04-24T14:11:17;1.90;;;1.80;;
9524;SDS011;15940;48.734;9.112;2023-04-24T14:13:45;3.10;;;2.03;;
9524;SDS011;15940;48.734;9.112;2023-04-24T14:16:12;1.47;;;1.40;;
9524;SDS011;15940;48.734;9.112;2023-04-24T14:18:41;1.83;;;1.63;;
9524;SDS011;15940;48.734;9.112;2023-04-24T14:21:08;3.47;;;1.60;;
9524;SDS011;15940;48.734;9.112;2023-04-24T14:23:35;2.73;;;1.60;;
9524;SDS011;15940;48.734;9.112;2023-04-24T14:26:02;1.90;;;1.80;;
9524;SDS011;15940;48.734;9.112;2023-04-24T14:28:29;2.20;;;2.00;;
9524;SDS011;15940;48.734;9.112;2023-04-24T14:30:56;2.10;;;1.97;;
9524;SDS011;15940;48.734;9.112;2023-04-24T14:33:23;2.43;;;2.23;;
9524;SDS011;15940;48.734;9.112;2023-04-24T14:35:51;2.20;;;2.00;;
9524;SDS011;15940;48.734;9.112;2023-04-24T14:38:18;2.70;;;1.90;;
9524;SDS011;15940;48.734;9.112;2023-04-24T14:40:45;2.00;;;1.90;;
9524;SDS011;15940;48.734;9.112;2023-04-24T14:43:12;2.53;;;2.10;;
9524;SDS011;15940;48.734;9.112;2023-04-24T14:45:39;2.70;;;2.00;;
9524;SDS011;15940;48.734;9.112;2023-04-24T14:48:06;2.90;;;1.73;;
9524;SDS011;15940;48.734;9.112;2023-04-24T14:50:34;2.10;;;1.90;;
9524;SDS011;15940;48.734;9.112;2023-04-24T14:53:02;2.10;;;1.90;;
9524;SDS011;15940;48.734;9.112;2023-04-24T14:55:30;2.27;;;2.07;;
9524;SDS011;15940;48.734;9.112;2023-04-24T14:57:58;1.90;;;1.77;;
9524;SDS011;15940;48.734;9.112;2023-04-24T15:00:25;2.00;;;1.77;;
9524;SDS011;15940;48.734;9.112;2023-04-24T15:02:52;2.03;;;1.63;;
9524;SDS011;15940;48.734;9.112;2023-04-24T15:05:20;2.10;;;1.90;;
9524;SDS011;15940;48.734;9.112;2023-04-24T15:07:47;1.77;;;1.67;;
9524;SDS011;15940;48.734;9.112;2023-04-24T15:10:16;1.93;;;1.70;;
9524;SDS011;15940;48.734;9.112;2023-04-24T15:12:43;2.37;;;1.87;;
9524;SDS011;15940;48.734;9.112;2023-04-24T15:15:10;2.60;;;1.97;;